Time;durP1;ratioP1;P1;durP2;ratioP2;P2;SDS_P1;SDS_P2;PMS_P1;PMS_P2;Temp;Humidity;BMP_temperature;BMP_pressure;BME280_temperature;BME280_humidity;BME280_pressure;Samples;Min_cycle;Max_cycle;Signal;HPM_P1;HPM_P2
2021/11/13 00:00:05;;;;;;;63.05;44.00;;;;;;;13.97;69.17;101932.38;4919730;28;102131;-51
2021/11/13 00:02:32;;;;;;;55.90;42.90;;;;;;;13.98;69.14;101933.19;4921887;28;102942;-51
2021/11/13 00:04:58;;;;;;;57.88;42.15;;;;;;;13.98;69.23;101933.19;4924625;28;102248;-51
2021/11/13 00:07:25;;;;;;;60.72;44.03;;;;;;;13.98;69.25;101934.00;4921079;28;104048;-51
2021/11/13 00:09:53;;;;;;;58.58;41.60;;;;;;;13.97;69.17;101926.91;4926131;28;102151;-52
2021/11/13 00:12:21;;;;;;;59.65;42.45;;;;;;;13.97;68.98;101926.09;4937791;28;102230;-51
2021/11/13 00:14:48;;;;;;;56.58;41.67;;;;;;;13.97;68.98;101935.13;4928545;28;102303;-52
2021/11/13 00:17:15;;;;;;;55.28;40.63;;;;;;;13.98;69.14;101925.81;4930160;28;103846;-51
2021/11/13 00:19:43;;;;;;;57.30;43.08;;;;;;;13.96;69.31;101933.47;4919822;28;102456;-51
2021/11/13 00:22:10;;;;;;;59.42;41.42;;;;;;;13.96;69.06;101936.22;4924250;28;102308;-51
2021/11/13 00:24:37;;;;;;;58.67;41.33;;;;;;;13.96;69.11;101941.69;4929984;28;102384;-51
2021/11/13 00:27:06;;;;;;;53.78;40.22;;;;;;;13.97;69.14;101942.50;4924024;28;103902;-51
2021/11/13 00:29:33;;;;;;;54.50;39.33;;;;;;;13.96;69.02;101933.47;4931622;28;102156;-51
2021/11/13 00:32:00;;;;;;;54.40;39.92;;;;;;;13.96;69.21;101936.22;4929873;28;102682;-51
2021/11/13 00:34:27;;;;;;;54.15;39.72;;;;;;;13.97;69.06;101942.50;4919359;28;102593;-51
2021/11/13 00:36:53;;;;;;;55.15;39.17;;;;;;;13.96;69.12;101936.22;4928386;28;103878;-51
2021/11/13 00:39:21;;;;;;;52.83;38.70;;;;;;;13.96;68.90;101944.41;4920744;28;102410;-51
2021/11/13 00:41:47;;;;;;;54.85;39.80;;;;;;;13.95;69.08;101934.53;4932293;28;102333;-51
2021/11/13 00:44:15;;;;;;;55.33;39.75;;;;;;;13.95;69.12;101937.28;4925729;28;102128;-51
2021/11/13 00:46:42;;;;;;;53.75;38.92;;;;;;;13.95;68.88;101940.84;4932976;28;104059;-51
2021/11/13 00:49:08;;;;;;;52.17;38.10;;;;;;;13.95;69.12;101940.00;4900771;28;102364;-52
2021/11/13 00:51:36;;;;;;;53.75;38.38;;;;;;;13.94;68.81;101939.19;4906355;28;102407;-51
2021/11/13 00:54:04;;;;;;;49.05;36.67;;;;;;;13.95;69.01;101949.03;4936364;28;102181;-52
2021/11/13 00:56:30;;;;;;;54.28;38.67;;;;;;;13.95;69.00;101940.00;4927085;28;104279;-51
2021/11/13 00:58:59;;;;;;;49.05;36.42;;;;;;;13.94;69.11;101944.66;4927889;28;102211;-51
2021/11/13 01:01:27;;;;;;;50.20;37.45;;;;;;;13.95;69.35;101946.31;4934276;28;102274;-51
2021/11/13 01:03:53;;;;;;;49.42;36.55;;;;;;;13.96;68.98;101949.91;4925990;28;102270;-51
2021/11/13 01:06:19;;;;;;;48.50;36.60;;;;;;;13.95;69.00;101934.53;4936494;28;102851;-51
2021/11/13 01:08:47;;;;;;;50.55;35.83;;;;;;;13.95;68.94;101940.00;4927904;28;102258;-51
2021/11/13 01:11:18;;;;;;;48.42;34.85;;;;;;;13.95;69.09;101940.00;4937339;28;102323;-51
2021/11/13 01:13:45;;;;;;;48.85;35.88;;;;;;;13.94;68.91;101939.19;4936067;28;102595;-52
2021/11/13 01:16:13;;;;;;;44.03;34.10;;;;;;;13.94;69.04;101939.19;4935952;28;103868;-52
2021/11/13 01:18:42;;;;;;;54.67;36.35;;;;;;;13.94;69.20;101944.66;4923922;28;102193;-52
2021/11/13 01:21:08;;;;;;;46.72;35.38;;;;;;;13.94;69.04;101933.72;4940785;28;102288;-51
2021/11/13 01:23:36;;;;;;;45.85;35.25;;;;;;;13.94;68.92;101939.19;4923913;28;103256;-51
2021/11/13 01:26:05;;;;;;;45.47;35.30;;;;;;;13.94;69.04;101938.38;4938476;28;104070;-51
2021/11/13 01:28:36;;;;;;;49.10;33.65;;;;;;;13.93;68.92;101940.28;4932574;28;102322;-51
2021/11/13 01:31:06;;;;;;;45.30;33.05;;;;;;;13.94;69.08;101944.66;4938789;28;102420;-51
2021/11/13 01:33:33;;;;;;;48.88;34.83;;;;;;;13.93;69.11;101940.28;4929581;28;102319;-51
2021/11/13 01:36:04;;;;;;;47.10;34.38;;;;;;;13.94;68.79;101949.31;4915355;28;104061;-51
2021/11/13 01:38:31;;;;;;;45.40;33.15;;;;;;;13.94;69.04;101949.31;4918611;28;102144;-51
2021/11/13 01:40:57;;;;;;;43.75;33.10;;;;;;;13.93;69.07;101936.72;4927423;28;102432;-51
2021/11/13 01:43:24;;;;;;;44.10;31.98;;;;;;;13.92;69.04;101944.13;4928123;28;102501;-51
2021/11/13 01:45:51;;;;;;;42.47;32.38;;;;;;;13.94;69.02;101943.84;4930965;28;104232;-51
2021/11/13 01:48:17;;;;;;;45.58;33.25;;;;;;;13.93;69.04;101936.72;4932760;28;102334;-51
2021/11/13 01:50:46;;;;;;;44.65;30.65;;;;;;;13.93;69.17;101944.94;4931519;28;102127;-52
2021/11/13 01:53:14;;;;;;;44.70;31.90;;;;;;;13.92;68.95;101941.38;4924549;28;102700;-51
2021/11/13 01:55:41;;;;;;;44.88;32.13;;;;;;;13.92;68.96;101941.38;4925751;28;103939;-51
2021/11/13 01:58:11;;;;;;;42.35;31.13;;;;;;;13.92;69.02;101940.56;4932884;28;102318;-52
2021/11/13 02:00:43;;;;;;;39.75;30.55;;;;;;;13.92;69.04;101940.56;4937141;28;104004;-51
2021/11/13 02:03:11;;;;;;;43.10;31.30;;;;;;;13.92;69.20;101935.09;4919502;28;103270;-51
2021/11/13 02:05:37;;;;;;;41.72;32.08;;;;;;;13.92;69.05;101941.38;4920040;28;104075;-52
2021/11/13 02:08:05;;;;;;;41.35;30.55;;;;;;;13.93;69.04;101936.72;4925830;28;102588;-51
2021/11/13 02:10:34;;;;;;;40.25;30.63;;;;;;;13.92;68.86;101940.56;4929901;28;102544;-51
2021/11/13 02:13:01;;;;;;;41.75;31.30;;;;;;;13.92;68.79;101941.38;4925418;28;103172;-51
2021/11/13 02:15:28;;;;;;;37.28;29.20;;;;;;;13.91;68.77;101939.72;4923342;28;103950;-51
2021/11/13 02:17:57;;;;;;;39.63;30.00;;;;;;;13.92;69.06;101946.03;4934255;28;102621;-51
2021/11/13 02:20:37;;;;;;;39.78;29.33;;;;;;;13.90;69.41;101940.81;4933899;28;102346;-51
2021/11/13 02:23:07;;;;;;;37.45;29.10;;;;;;;13.91;69.06;101949.84;4928385;28;102235;-51
2021/11/13 02:25:34;;;;;;;41.28;31.42;;;;;;;13.91;68.91;101947.94;4924885;28;102994;-51
2021/11/13 02:28:01;;;;;;;39.78;29.23;;;;;;;13.91;68.88;101944.38;4934627;28;102689;-51
2021/11/13 02:30:28;;;;;;;39.60;29.63;;;;;;;13.90;68.98;101946.28;4936715;28;102839;-52
2021/11/13 02:32:55;;;;;;;39.00;29.40;;;;;;;13.91;69.04;101955.31;4936447;28;102560;-52
2021/11/13 02:35:25;;;;;;;34.65;27.33;;;;;;;13.90;69.05;101954.50;4937115;28;103931;-52
2021/11/13 02:37:54;;;;;;;36.10;27.75;;;;;;;13.91;68.89;101955.31;4939166;28;102090;-52
2021/11/13 02:40:21;;;;;;;37.67;29.15;;;;;;;13.91;68.90;101964.34;4929637;28;102294;-51
2021/11/13 02:42:48;;;;;;;39.47;27.83;;;;;;;13.90;68.92;101959.16;4934871;28;103037;-51
2021/11/13 02:45:16;;;;;;;34.35;27.30;;;;;;;13.91;68.97;101958.06;4935288;28;104240;-51
2021/11/13 02:47:46;;;;;;;34.75;28.05;;;;;;;13.90;69.19;101959.16;4924505;28;103425;-51
2021/11/13 02:50:15;;;;;;;34.22;26.77;;;;;;;13.90;69.09;101956.41;4930418;28;102621;-51
2021/11/13 02:52:43;;;;;;;36.63;26.73;;;;;;;13.89;68.83;101958.31;4934083;28;102158;-52
2021/11/13 02:55:11;;;;;;;35.83;27.60;;;;;;;13.90;69.07;101967.34;4936836;28;104255;-51
2021/11/13 02:57:39;;;;;;;36.60;28.43;;;;;;;13.90;68.88;101959.16;4937259;28;102360;-51
2021/11/13 03:00:08;;;;;;;34.45;26.27;;;;;;;13.90;69.18;101964.63;4933877;28;101832;-51
2021/11/13 03:02:36;;;;;;;32.28;26.00;;;;;;;13.90;69.03;101961.88;4935047;28;102527;-52
2021/11/13 03:05:04;;;;;;;35.38;26.75;;;;;;;13.89;68.88;101958.31;4936728;28;103700;-51
2021/11/13 03:07:30;;;;;;;34.13;26.15;;;;;;;13.89;68.84;101968.44;4929772;28;102412;-51
2021/11/13 03:09:57;;;;;;;36.58;27.45;;;;;;;13.89;68.98;101962.97;4927120;28;102441;-51
2021/11/13 03:12:25;;;;;;;36.08;26.52;;;;;;;13.90;69.06;101970.09;4942806;28;102191;-51
2021/11/13 03:14:51;;;;;;;33.45;25.73;;;;;;;13.89;69.13;101960.25;4931454;28;103709;-51
2021/11/13 03:17:18;;;;;;;33.20;24.88;;;;;;;13.88;68.94;101956.69;4921711;28;102155;-51
2021/11/13 03:19:44;;;;;;;32.05;25.67;;;;;;;13.88;68.76;101956.69;4928689;28;102089;-51
2021/11/13 03:22:11;;;;;;;35.08;27.02;;;;;;;13.89;68.85;101961.06;4938337;28;102063;-51
2021/11/13 03:24:39;;;;;;;31.40;25.08;;;;;;;13.89;69.00;101960.25;4929980;28;103963;-52
2021/11/13 03:27:06;;;;;;;32.92;24.83;;;;;;;13.88;68.90;101966.78;4922911;28;102857;-51
2021/11/13 03:29:35;;;;;;;33.10;25.65;;;;;;;13.89;68.76;101968.44;4927394;28;102245;-51
2021/11/13 03:32:03;;;;;;;33.33;24.80;;;;;;;13.88;68.79;101972.25;4935734;28;102140;-51
2021/11/13 03:34:29;;;;;;;32.28;24.90;;;;;;;13.87;68.99;101982.38;4936127;28;103852;-51
2021/11/13 03:36:56;;;;;;;34.38;25.40;;;;;;;13.89;68.82;101984.88;4936382;28;102438;-51
2021/11/13 03:39:23;;;;;;;30.55;25.65;;;;;;;13.89;69.08;101979.41;4928506;28;102601;-51
2021/11/13 03:41:51;;;;;;;31.50;24.08;;;;;;;13.88;68.97;101984.06;4926999;28;102684;-51
2021/11/13 03:44:17;;;;;;;30.40;23.58;;;;;;;13.88;68.88;101977.72;4932650;28;102711;-51
2021/11/13 03:46:45;;;;;;;29.92;24.13;;;;;;;13.88;68.95;101983.19;4935447;28;102362;-51
2021/11/13 03:49:13;;;;;;;32.10;23.58;;;;;;;13.88;69.02;101983.19;4929930;28;102044;-51
2021/11/13 03:51:39;;;;;;;29.55;23.40;;;;;;;13.88;68.89;101985.94;4936021;28;102180;-52
2021/11/13 03:54:05;;;;;;;30.88;23.65;;;;;;;13.87;68.82;101981.56;4931179;28;104044;-51
2021/11/13 03:56:32;;;;;;;28.23;23.00;;;;;;;13.88;68.91;101988.69;4934617;28;102584;-51
2021/11/13 03:58:59;;;;;;;30.90;24.50;;;;;;;13.88;69.10;101988.69;4926034;28;102210;-51
2021/11/13 04:01:25;;;;;;;29.20;23.90;;;;;;;13.87;68.81;101993.31;4927466;28;102225;-51
2021/11/13 04:03:53;;;;;;;30.08;23.13;;;;;;;13.87;68.71;101997.97;4930163;28;104083;-51
2021/11/13 04:06:20;;;;;;;28.42;22.73;;;;;;;13.88;68.91;101999.63;4925622;28;102333;-51
2021/11/13 04:08:47;;;;;;;29.90;23.30;;;;;;;13.87;69.09;102001.53;4924623;28;102188;-51
2021/11/13 04:11:14;;;;;;;28.98;22.60;;;;;;;13.87;68.96;102003.47;4924538;28;102543;-51
2021/11/13 04:13:41;;;;;;;29.30;22.63;;;;;;;13.86;68.99;102008.09;4923557;28;103955;-51
2021/11/13 04:16:07;;;;;;;29.63;23.60;;;;;;;13.86;69.08;101997.16;4927621;28;102235;-51
2021/11/13 04:18:37;;;;;;;28.98;22.58;;;;;;;13.86;69.00;102001.81;4923892;28;103143;-51
2021/11/13 04:21:04;;;;;;;28.05;22.27;;;;;;;13.87;68.88;101992.50;4927525;28;102278;-51
2021/11/13 04:23:32;;;;;;;26.65;21.73;;;;;;;13.87;68.71;101995.25;4930380;28;103719;-51
2021/11/13 04:25:59;;;;;;;27.27;22.25;;;;;;;13.86;68.77;101999.91;4938108;28;102397;-51
2021/11/13 04:28:25;;;;;;;27.92;22.48;;;;;;;13.86;69.06;102002.63;4924944;28;102199;-51
2021/11/13 04:30:52;;;;;;;27.42;21.55;;;;;;;13.86;69.07;101996.34;4927395;28;104822;-52
2021/11/13 04:33:19;;;;;;;27.85;22.30;;;;;;;13.86;68.98;101999.06;4927206;28;103924;-52
2021/11/13 04:38:15;;;;;;;26.80;22.33;;;;;;;13.87;69.08;102014.41;4927295;28;102267;-51
2021/11/13 04:40:42;;;;;;;28.27;22.00;;;;;;;13.85;69.07;102011.13;4935112;28;105448;-51
2021/11/13 04:43:08;;;;;;;28.27;22.23;;;;;;;13.86;68.86;102008.09;4927382;28;104058;-52
2021/11/13 04:45:35;;;;;;;25.02;21.38;;;;;;;13.86;69.11;102004.53;4929137;28;102199;-51
2021/11/13 04:48:02;;;;;;;26.52;21.30;;;;;;;13.86;68.98;102004.53;4922816;28;102155;-51
2021/11/13 04:50:29;;;;;;;28.70;22.13;;;;;;;13.85;69.07;101997.44;4928003;28;102245;-51
2021/11/13 04:52:56;;;;;;;26.73;21.13;;;;;;;13.86;68.96;102004.53;4932886;28;104057;-52
2021/11/13 04:55:24;;;;;;;26.52;21.13;;;;;;;13.85;68.77;102000.19;4931056;28;102010;-51
2021/11/13 04:57:53;;;;;;;27.50;22.10;;;;;;;13.85;68.79;102000.19;4916232;28;102512;-51
2021/11/13 05:00:23;;;;;;;25.35;20.67;;;;;;;13.85;68.88;101995.53;4932227;28;103498;-51
2021/11/13 05:02:50;;;;;;;27.83;20.92;;;;;;;13.86;68.96;101990.88;4926878;28;103750;-51
2021/11/13 05:05:16;;;;;;;26.65;21.83;;;;;;;13.85;68.81;101991.97;4926952;28;102305;-51
2021/11/13 05:07:43;;;;;;;28.50;20.63;;;;;;;13.84;69.09;101996.59;4929675;28;102630;-51
2021/11/13 05:10:10;;;;;;;26.58;20.48;;;;;;;13.85;69.01;102005.66;4929126;28;102571;-51
2021/11/13 05:12:40;;;;;;;23.70;20.45;;;;;;;13.85;68.71;102002.91;4922130;28;103773;-51
2021/11/13 05:15:07;;;;;;;27.38;20.60;;;;;;;13.85;68.91;102002.91;4928381;28;102196;-52
2021/11/13 05:17:35;;;;;;;29.88;21.17;;;;;;;13.85;68.92;102011.13;4925341;28;102368;-51
2021/11/13 05:20:07;;;;;;;26.17;21.15;;;;;;;13.85;68.96;102016.59;4924363;28;102550;-51
2021/11/13 05:22:36;;;;;;;25.52;20.45;;;;;;;13.85;68.91;102022.06;4918253;28;107994;-52
2021/11/13 05:25:05;;;;;;;24.92;19.83;;;;;;;13.85;68.75;102022.06;4930200;28;102383;-51
2021/11/13 05:27:31;;;;;;;25.33;19.90;;;;;;;13.85;68.78;102022.06;4921901;28;102298;-52
2021/11/13 05:29:59;;;;;;;25.80;20.40;;;;;;;13.85;68.97;102022.06;4928260;28;102192;-51
2021/11/13 05:32:25;;;;;;;26.65;20.73;;;;;;;13.84;68.93;102025.88;4931910;28;104005;-52
2021/11/13 05:34:52;;;;;;;27.73;21.75;;;;;;;13.84;69.04;102026.69;4934370;28;103165;-52
2021/11/13 05:37:18;;;;;;;25.52;20.38;;;;;;;13.85;69.09;102038.47;4921360;28;102088;-52
2021/11/13 05:39:45;;;;;;;24.60;19.65;;;;;;;13.84;68.87;102034.06;4930239;28;102450;-51
2021/11/13 05:42:11;;;;;;;28.42;21.10;;;;;;;13.84;68.93;102043.09;4930345;28;104013;-51
2021/11/13 05:44:37;;;;;;;25.10;20.58;;;;;;;13.85;68.85;102038.47;4920864;28;102068;-51
2021/11/13 05:47:06;;;;;;;24.05;19.33;;;;;;;13.85;68.97;102057.63;4927093;28;102274;-51
2021/11/13 05:49:32;;;;;;;23.77;19.97;;;;;;;13.85;68.87;102049.44;4926834;28;102349;-52
2021/11/13 05:51:59;;;;;;;25.33;20.63;;;;;;;13.84;69.05;102058.69;4925277;28;104030;-51
2021/11/13 05:54:25;;;;;;;23.80;19.13;;;;;;;13.85;68.84;102058.47;4927757;28;102522;-52
2021/11/13 05:56:52;;;;;;;23.98;20.17;;;;;;;13.84;68.81;102064.19;4928942;28;102530;-51
2021/11/13 05:59:19;;;;;;;25.70;20.27;;;;;;;13.85;68.83;102071.31;4922733;28;102263;-51
2021/11/13 06:01:45;;;;;;;24.35;19.92;;;;;;;13.85;69.08;102065.84;4924956;28;103926;-51
2021/11/13 06:04:13;;;;;;;24.05;19.70;;;;;;;13.85;68.91;102068.59;4936472;28;102054;-51
2021/11/13 06:06:40;;;;;;;25.25;19.95;;;;;;;13.85;68.91;102060.38;4932048;28;102146;-51
2021/11/13 06:09:06;;;;;;;23.85;20.40;;;;;;;13.84;69.04;102061.44;4932067;28;102129;-51
2021/11/13 06:11:32;;;;;;;25.25;19.88;;;;;;;13.85;69.02;102065.84;4926930;28;103966;-51
2021/11/13 06:13:59;;;;;;;23.45;19.63;;;;;;;13.84;68.90;102069.66;4930587;28;102291;-51
2021/11/13 06:16:25;;;;;;;24.05;19.23;;;;;;;13.84;69.00;102073.19;4931800;28;103766;-51
2021/11/13 06:18:52;;;;;;;23.23;18.88;;;;;;;13.85;69.00;102082.25;4936907;28;102247;-51
2021/11/13 06:21:19;;;;;;;24.50;19.52;;;;;;;13.86;69.01;102086.66;4926493;28;103914;-51
2021/11/13 06:23:46;;;;;;;24.48;19.42;;;;;;;13.86;68.91;102081.16;4932009;28;102145;-51
2021/11/13 06:26:31;;;;;;;23.00;19.63;;;;;;;13.85;68.90;102080.34;4927335;28;102143;-51
2021/11/13 06:29:03;;;;;;;23.50;19.77;;;;;;;13.85;68.91;102085.81;4930130;28;102621;-51
2021/11/13 06:31:29;;;;;;;24.02;19.55;;;;;;;13.85;69.12;102093.22;4915348;28;103789;-51
2021/11/13 06:33:56;;;;;;;23.98;19.45;;;;;;;13.86;69.05;102100.31;4930347;28;102282;-51
2021/11/13 06:36:24;;;;;;;25.50;19.77;;;;;;;13.86;69.01;102094.84;4936206;28;102282;-51
2021/11/13 06:38:50;;;;;;;24.55;19.70;;;;;;;13.86;69.18;102100.31;4934438;28;102521;-51
2021/11/13 06:41:17;;;;;;;24.33;19.70;;;;;;;13.86;68.95;102100.31;4934416;28;103915;-51
2021/11/13 06:43:43;;;;;;;24.67;20.73;;;;;;;13.87;68.94;102093.75;4932387;28;102343;-51
2021/11/13 06:46:10;;;;;;;24.02;19.25;;;;;;;13.87;69.09;102096.50;4933748;28;102189;-51
2021/11/13 06:48:36;;;;;;;24.73;19.20;;;;;;;13.86;69.11;102094.84;4927157;28;102376;-51
2021/11/13 06:51:03;;;;;;;24.73;19.13;;;;;;;13.87;69.08;102091.03;4924266;28;103972;-51
2021/11/13 06:53:30;;;;;;;24.83;19.95;;;;;;;13.87;69.13;102091.03;4913037;28;102001;-51
2021/11/13 06:55:57;;;;;;;24.25;20.10;;;;;;;13.87;68.87;102088.28;4922989;28;102605;-52
2021/11/13 06:58:23;;;;;;;27.05;20.98;;;;;;;13.87;68.74;102097.31;4928436;28;102173;-51
2021/11/13 07:00:50;;;;;;;22.60;19.85;;;;;;;13.87;69.14;102091.03;4927224;28;104061;-51
2021/11/13 07:03:16;;;;;;;25.00;19.95;;;;;;;13.87;68.98;102093.75;4924137;28;102499;-51
2021/11/13 07:05:42;;;;;;;26.13;20.48;;;;;;;13.87;69.11;102091.03;4929501;28;102231;-52
2021/11/13 07:08:09;;;;;;;25.48;21.10;;;;;;;13.87;69.10;102091.03;4932441;28;102423;-51
2021/11/13 07:10:37;;;;;;;24.38;20.13;;;;;;;13.86;69.22;102095.69;4926435;28;103889;-51
2021/11/13 07:13:04;;;;;;;23.65;19.75;;;;;;;13.88;69.07;102089.94;4930705;28;102214;-51
2021/11/13 07:15:33;;;;;;;24.65;21.15;;;;;;;13.87;69.01;102085.56;4931409;28;102270;-51
2021/11/13 07:18:01;;;;;;;25.17;19.88;;;;;;;13.88;69.15;102092.66;4927556;28;102396;-51
2021/11/13 07:20:28;;;;;;;24.45;20.10;;;;;;;13.87;69.08;102085.56;4929677;28;103847;-51
2021/11/13 07:22:56;;;;;;;25.45;20.92;;;;;;;13.87;69.00;102082.81;4934164;28;102543;-51
2021/11/13 07:25:25;;;;;;;25.20;20.80;;;;;;;13.88;69.21;102087.19;4930665;28;102360;-51
2021/11/13 07:27:59;;;;;;;27.25;21.00;;;;;;;13.87;69.16;102096.50;4927337;28;102366;-51
2021/11/13 07:30:28;;;;;;;26.63;21.25;;;;;;;13.87;68.99;102091.84;4925166;28;103908;-51
2021/11/13 07:32:54;;;;;;;24.77;20.63;;;;;;;13.87;68.89;102085.56;4929317;28;102255;-51
2021/11/13 07:35:21;;;;;;;27.33;20.92;;;;;;;13.88;69.09;102098.13;4929914;28;102103;-51
2021/11/13 07:37:48;;;;;;;26.33;20.83;;;;;;;13.88;69.20;102093.53;4923837;28;102250;-52
2021/11/13 07:40:15;;;;;;;25.85;21.05;;;;;;;13.88;69.26;102093.53;4926124;28;104910;-52
2021/11/13 07:42:42;;;;;;;24.08;20.38;;;;;;;13.88;69.03;102098.13;4929760;28;102117;-51
2021/11/13 07:45:11;;;;;;;23.63;20.00;;;;;;;13.88;68.90;102101.72;4931230;28;102708;-51
2021/11/13 07:47:41;;;;;;;27.27;21.77;;;;;;;13.88;68.92;102103.59;4936855;28;102227;-52
2021/11/13 07:50:08;;;;;;;26.17;21.58;;;;;;;13.88;69.02;102107.19;4924630;28;103829;-51
2021/11/13 07:52:35;;;;;;;26.55;20.92;;;;;;;13.88;69.13;102115.41;4923340;28;103790;-52
2021/11/13 07:55:01;;;;;;;29.05;22.38;;;;;;;13.89;69.21;102110.75;4922596;28;102209;-52
2021/11/13 07:57:28;;;;;;;28.42;22.45;;;;;;;13.90;69.01;102112.41;4919479;28;102870;-52
2021/11/13 07:59:54;;;;;;;28.02;21.83;;;;;;;13.90;69.11;102112.41;4925209;28;104031;-52
2021/11/13 08:02:23;;;;;;;27.02;22.15;;;;;;;13.89;69.21;102116.22;4931032;28;101971;-52
2021/11/13 08:04:51;;;;;;;28.08;22.60;;;;;;;13.89;68.92;102116.22;4935517;28;102341;-52
2021/11/13 08:07:17;;;;;;;27.52;22.10;;;;;;;13.89;69.11;102117.06;4935784;28;102668;-51
2021/11/13 08:09:44;;;;;;;28.42;22.17;;;;;;;13.89;69.11;102116.22;4932992;28;103856;-52
2021/11/13 08:12:10;;;;;;;27.88;23.25;;;;;;;13.90;69.15;102117.88;4936616;28;102368;-51
2021/11/13 08:14:36;;;;;;;28.27;22.40;;;;;;;13.90;69.16;102117.88;4922663;28;102194;-51
2021/11/13 08:17:07;;;;;;;32.67;23.83;;;;;;;13.89;69.23;102121.69;4927382;28;102259;-51
2021/11/13 08:19:36;;;;;;;25.92;22.48;;;;;;;13.90;69.18;102123.34;4927696;28;103999;-51
2021/11/13 08:22:03;;;;;;;29.60;23.08;;;;;;;13.89;69.05;102128.00;4928262;28;102202;-51
2021/11/13 08:24:30;;;;;;;30.60;23.50;;;;;;;13.90;69.16;102128.81;4926647;28;102408;-51
2021/11/13 08:26:58;;;;;;;27.95;22.60;;;;;;;13.89;68.86;102132.66;4928025;28;102599;-52
2021/11/13 08:29:24;;;;;;;26.67;22.17;;;;;;;13.89;69.06;102129.91;4931358;28;104261;-51
2021/11/13 08:31:50;;;;;;;29.60;22.98;;;;;;;13.88;68.93;102130.97;4918948;28;102707;-51
2021/11/13 08:34:18;;;;;;;27.17;22.92;;;;;;;13.87;69.04;102127.41;4929134;28;102589;-51
2021/11/13 08:36:46;;;;;;;30.20;24.02;;;;;;;13.89;68.98;102132.66;4926371;28;102458;-52
2021/11/13 08:39:13;;;;;;;33.28;23.95;;;;;;;13.88;68.88;102123.63;4919218;28;104003;-51
2021/11/13 08:41:40;;;;;;;27.88;23.08;;;;;;;13.89;69.05;102127.19;4918605;28;102233;-52
2021/11/13 08:44:06;;;;;;;29.00;23.77;;;;;;;13.89;69.01;102121.69;4935398;28;102211;-51
2021/11/13 08:46:33;;;;;;;30.85;23.67;;;;;;;13.89;69.09;102127.19;4931127;28;102099;-51
2021/11/13 08:49:01;;;;;;;29.88;22.85;;;;;;;13.90;69.27;102117.88;4932634;28;103984;-51
2021/11/13 08:51:28;;;;;;;31.80;24.80;;;;;;;13.89;69.17;102113.50;4935520;28;102083;-52
2021/11/13 08:53:56;;;;;;;29.67;24.02;;;;;;;13.89;69.18;102124.44;4935524;28;102084;-51
2021/11/13 08:56:25;;;;;;;29.27;23.90;;;;;;;13.88;69.13;102120.88;4933350;28;102201;-51
2021/11/13 08:58:53;;;;;;;30.83;24.42;;;;;;;13.90;69.16;102117.88;4920981;28;103910;-52
2021/11/13 09:01:21;;;;;;;32.22;24.88;;;;;;;13.89;68.84;102119.78;4929362;28;102050;-51
2021/11/13 09:03:50;;;;;;;30.50;24.83;;;;;;;13.90;68.88;102126.91;4930412;28;102310;-51
2021/11/13 09:06:18;;;;;;;31.33;25.30;;;;;;;13.90;68.91;102123.34;4933371;28;102869;-51
2021/11/13 09:08:47;;;;;;;30.77;25.08;;;;;;;13.91;69.13;102119.53;4915226;28;103988;-51
2021/11/13 09:11:18;;;;;;;33.03;25.35;;;;;;;13.90;69.18;102115.13;4915376;28;102474;-52
2021/11/13 09:14:07;;;;;;;32.20;25.77;;;;;;;13.90;69.13;102115.97;4923611;28;102103;-51
2021/11/13 09:16:34;;;;;;;30.10;24.15;;;;;;;13.90;69.17;102113.22;4928325;28;102116;-52
2021/11/13 09:19:03;;;;;;;33.97;25.60;;;;;;;13.90;69.09;102115.97;4929277;28;104087;-51
2021/11/13 09:21:32;;;;;;;29.83;24.38;;;;;;;13.90;68.99;102118.69;4930852;28;102482;-51
2021/11/13 09:23:59;;;;;;;30.08;24.65;;;;;;;13.91;69.10;102116.78;4914009;28;102337;-52
2021/11/13 09:26:28;;;;;;;30.20;24.35;;;;;;;13.92;69.22;102107.50;4930010;28;102295;-51
2021/11/13 09:28:56;;;;;;;30.88;24.70;;;;;;;13.92;69.04;102110.25;4919209;28;104069;-51
2021/11/13 09:31:24;;;;;;;30.83;25.05;;;;;;;13.90;69.14;102105.00;4917252;28;102156;-51
2021/11/13 09:33:50;;;;;;;31.63;24.40;;;;;;;13.91;69.04;102103.91;4920923;28;103551;-51
2021/11/13 09:36:17;;;;;;;32.67;24.88;;;;;;;13.91;69.05;102106.66;4924915;28;102605;-51
2021/11/13 09:38:44;;;;;;;33.63;25.95;;;;;;;13.92;69.02;102104.78;4929614;28;103693;-51
2021/11/13 09:41:15;;;;;;;33.47;26.00;;;;;;;13.91;68.89;102106.66;4920475;28;103502;-51
2021/11/13 09:43:43;;;;;;;32.15;25.65;;;;;;;13.91;68.98;102114.03;4934526;28;102672;-51
2021/11/13 09:46:11;;;;;;;31.85;26.10;;;;;;;13.91;69.08;102109.38;4937845;28;102415;-51
2021/11/13 09:48:40;;;;;;;47.70;27.65;;;;;;;13.92;69.30;102110.25;4928684;28;102826;-51
2021/11/13 09:51:08;;;;;;;34.00;26.25;;;;;;;13.92;69.32;102110.25;4937196;28;102456;-52
2021/11/13 09:53:35;;;;;;;28.65;24.95;;;;;;;13.91;68.93;102106.66;4926101;28;102346;-51
2021/11/13 09:56:03;;;;;;;32.25;26.00;;;;;;;13.93;68.97;102118.19;4935255;28;102331;-52
2021/11/13 09:58:30;;;;;;;36.43;26.47;;;;;;;13.93;69.12;102114.63;4931157;28;103802;-52
2021/11/13 10:00:58;;;;;;;32.92;26.40;;;;;;;13.92;69.18;102110.25;4930074;28;102400;-52
2021/11/13 10:03:25;;;;;;;35.20;26.08;;;;;;;13.93;69.02;102117.38;4927544;28;102181;-52
2021/11/13 10:05:55;;;;;;;32.88;26.23;;;;;;;13.93;69.19;102120.91;4930730;28;102187;-52
2021/11/13 10:08:23;;;;;;;31.15;25.52;;;;;;;13.93;69.04;102111.88;4933545;28;103862;-52
2021/11/13 10:10:55;;;;;;;35.03;25.85;;;;;;;13.94;69.12;102113.53;4933921;28;102187;-51
2021/11/13 10:13:29;;;;;;;31.98;25.38;;;;;;;13.93;69.22;102114.63;4929413;28;102496;-51
2021/11/13 10:15:58;;;;;;;33.17;26.70;;;;;;;13.94;69.10;102110.78;4930822;28;104095;-52
2021/11/13 10:18:27;;;;;;;32.45;26.40;;;;;;;13.93;69.17;102111.88;4926918;28;103976;-52
2021/11/13 10:21:02;;;;;;;30.73;26.52;;;;;;;13.94;69.22;102119.81;4920194;28;102346;-52
2021/11/13 10:23:36;;;;;;;31.23;25.75;;;;;;;13.94;69.24;102108.06;4931767;28;102201;-52
2021/11/13 10:26:07;;;;;;;31.55;25.58;;;;;;;13.94;69.37;102108.06;4930141;28;102883;-52
2021/11/13 10:28:43;;;;;;;32.40;26.05;;;;;;;13.94;69.02;102108.06;4929032;28;103868;-52
2021/11/13 10:31:15;;;;;;;32.90;25.48;;;;;;;13.94;68.92;102113.53;4931027;28;103498;-52
2021/11/13 10:33:42;;;;;;;30.63;25.27;;;;;;;13.94;69.07;102108.06;4931374;28;102269;-52
2021/11/13 10:36:09;;;;;;;33.70;26.05;;;;;;;13.95;68.97;102110.53;4927989;28;102618;-51
2021/11/13 10:38:36;;;;;;;32.90;26.73;;;;;;;13.94;69.10;102103.41;4926990;28;104051;-51
2021/11/13 10:41:07;;;;;;;34.40;26.90;;;;;;;13.94;68.92;102105.31;4935314;28;102576;-51
2021/11/13 10:43:35;;;;;;;31.10;26.45;;;;;;;13.95;69.25;102104.22;4935029;28;102218;-52
2021/11/13 10:46:04;;;;;;;32.67;26.60;;;;;;;13.95;69.25;102098.75;4929280;28;102263;-52
2021/11/13 10:48:34;;;;;;;32.75;26.55;;;;;;;13.95;69.10;102104.22;4915760;28;103041;-52
2021/11/13 10:51:05;;;;;;;37.05;28.20;;;;;;;13.94;68.99;102097.94;4927409;28;102348;-52
2021/11/13 10:53:33;;;;;;;32.70;27.45;;;;;;;13.94;69.20;102102.59;4936140;28;102216;-52
2021/11/13 10:56:04;;;;;;;32.88;27.13;;;;;;;13.93;69.10;102096.28;4928076;28;102385;-52
2021/11/13 10:58:33;;;;;;;32.83;26.15;;;;;;;13.94;69.12;102094.38;4928959;28;107948;-53
2021/11/13 11:01:02;;;;;;;37.70;27.63;;;;;;;13.93;69.17;102096.28;4928994;28;102075;-51
2021/11/13 11:03:32;;;;;;;33.58;26.38;;;;;;;13.94;69.14;102097.09;4935111;28;102034;-52
2021/11/13 11:05:59;;;;;;;34.40;26.77;;;;;;;13.93;68.93;102090.00;4925918;28;103848;-52